Pagrindinis puslapis
METAR-TAF:

METAR-TAF

Oro uostai :

Waco, Teksasas, Jungtinės Amerikos Valstijos

platuma: 31-37-02N, ilguma: 097-13-40W, Aukštis: 157 m

Dabartinis oras

Ataskaita buvo paskelbta 1 valandą ir 5 minutes, ne 23:51 UTC
Vėjas 5 kt iš Pietryčių
Temperatūra 26°C
Drėgmė 24%
Slėgis 1016 hPa
Matomumas: 16.1 km
Giedras dangus

METAR: KACT 232351Z 14005KT 10SM CLR 26/04 A3001 RMK AO2 SLP158 T02610044 10306 20261 56008 $

Laikas: 19:56 (00:56 UTC)

Prognozė

Ataskaita buvo paskelbta 1 valandą ir 24 minutes, ne 23:32 UTC
Prognozė galioja nuo 24 metu 00 UTC su 24 metu 24 UTC
Vėjas 7 kt iš Pietų/Pietryčių
Matomumas: 10 km
Mažai debesys ne aukštis 25000 ft

TAF: KACT 232332Z 2400/2424 16007KT P6SM FEW250

Orai ataskaitas ir orų prognozės (METAR, TAF).

turimą stotys yra geltonos ir raudonos taškus žemėlapyje.

Perkelti pele per norėdami pamatyti stoties vardą.

Tada spustelėkite, norėdami matyti oro stebėjimo ir prognozės.

Norėdami pakeisti žemėlapį: spustelėkite ant žalios mygtukų su juodo kryžiaus žemyn,; žalią mygtuką su brūkšneliu, jei norite nutolinti; arba žalių rodyklių gretimoms žemėlapius.


METAR-TAF: